createdAt,value
2018-05-27T00:00:10.291Z,0
2018-05-27T00:00:50.838Z,0
2018-05-27T00:01:31.430Z,0
2018-05-27T00:02:12.022Z,0
2018-05-27T00:02:52.610Z,0
2018-05-27T00:03:33.157Z,0
2018-05-27T00:04:13.711Z,0
2018-05-27T00:04:54.273Z,0
2018-05-27T00:05:34.842Z,0
2018-05-27T00:06:15.406Z,0
2018-05-27T00:06:55.972Z,0
2018-05-27T00:07:36.513Z,0
2018-05-27T00:08:17.062Z,0
2018-05-27T00:08:57.608Z,0
2018-05-27T00:09:38.162Z,0
2018-05-27T00:10:19.562Z,0
2018-05-27T00:11:00.118Z,0
2018-05-27T00:11:40.673Z,0
2018-05-27T00:12:21.228Z,0
2018-05-27T00:13:01.962Z,0
2018-05-27T00:13:42.911Z,0
2018-05-27T00:14:23.513Z,0
2018-05-27T00:15:04.047Z,0
2018-05-27T00:15:44.610Z,0
2018-05-27T00:16:25.162Z,0
2018-05-27T00:17:05.748Z,0
2018-05-27T00:17:46.299Z,0
2018-05-27T00:18:26.833Z,0
2018-05-27T00:19:07.453Z,0
2018-05-27T00:19:48.000Z,0
2018-05-27T00:20:28.561Z,0
2018-05-27T00:21:09.117Z,0
2018-05-27T00:21:49.729Z,0
2018-05-27T00:22:30.291Z,0
2018-05-27T00:23:10.838Z,0
2018-05-27T00:23:51.383Z,0
2018-05-27T00:24:31.943Z,0
2018-05-27T00:25:12.513Z,0
2018-05-27T00:25:53.084Z,0
2018-05-27T00:26:33.659Z,0
2018-05-27T00:27:14.228Z,0
2018-05-27T00:27:54.787Z,0
2018-05-27T00:28:35.358Z,0
2018-05-27T00:29:15.886Z,0
2018-05-27T00:29:56.441Z,0
2018-05-27T00:30:36.991Z,0
2018-05-27T00:31:17.548Z,0
2018-05-27T00:31:58.115Z,0
2018-05-27T00:32:38.673Z,0
2018-05-27T00:33:19.207Z,0
2018-05-27T00:33:59.748Z,0
2018-05-27T00:34:40.302Z,0
2018-05-27T00:35:20.852Z,0
2018-05-27T00:36:01.401Z,0
2018-05-27T00:36:41.971Z,0
2018-05-27T00:37:22.545Z,0
2018-05-27T00:38:03.139Z,0
2018-05-27T00:38:43.692Z,0
2018-05-27T00:39:24.233Z,0
2018-05-27T00:40:04.777Z,0
2018-05-27T00:40:45.318Z,0
2018-05-27T00:41:25.876Z,0
2018-05-27T00:42:06.412Z,0
2018-05-27T00:42:46.965Z,0
2018-05-27T00:43:27.527Z,0
2018-05-27T00:44:08.070Z,0
2018-05-27T00:44:48.649Z,0
2018-05-27T00:45:29.207Z,0
2018-05-27T00:46:09.776Z,0
2018-05-27T00:46:50.344Z,0
2018-05-27T00:47:30.914Z,0
2018-05-27T00:48:11.459Z,0
2018-05-27T00:48:52.002Z,0
2018-05-27T00:49:32.561Z,0
2018-05-27T00:50:13.078Z,0
2018-05-27T00:50:53.631Z,0
2018-05-27T00:51:34.739Z,0
2018-05-27T00:52:15.282Z,0
2018-05-27T00:52:55.861Z,0
2018-05-27T00:53:36.421Z,0
2018-05-27T00:54:17.009Z,0
2018-05-27T00:54:57.546Z,0
2018-05-27T00:55:38.135Z,0
2018-05-27T00:56:18.701Z,0
2018-05-27T00:56:59.232Z,0
2018-05-27T00:57:39.817Z,0
2018-05-27T00:58:20.380Z,0
2018-05-27T00:59:00.926Z,0
2018-05-27T00:59:41.487Z,0
2018-05-27T01:00:22.040Z,0
2018-05-27T01:01:02.583Z,0
2018-05-27T01:01:43.138Z,0
2018-05-27T01:02:23.684Z,0
2018-05-27T01:03:04.239Z,0
2018-05-27T01:03:44.824Z,0
2018-05-27T01:04:25.418Z,0
2018-05-27T01:05:05.956Z,0
2018-05-27T01:05:46.533Z,0
2018-05-27T01:06:27.095Z,0
2018-05-27T01:07:07.661Z,0
2018-05-27T01:07:48.227Z,0
2018-05-27T01:08:28.850Z,0
2018-05-27T01:09:09.429Z,0
2018-05-27T01:09:49.978Z,0
2018-05-27T01:10:30.532Z,0
2018-05-27T01:11:11.082Z,0
2018-05-27T01:11:51.652Z,0
2018-05-27T01:12:32.192Z,0
2018-05-27T01:13:12.740Z,0
2018-05-27T01:13:53.286Z,0
2018-05-27T01:14:33.856Z,0
2018-05-27T01:15:14.454Z,0
2018-05-27T01:15:55.019Z,0
2018-05-27T01:16:35.584Z,0
2018-05-27T01:17:16.127Z,0
2018-05-27T01:17:56.680Z,0
2018-05-27T01:18:37.250Z,0
2018-05-27T01:19:17.819Z,0
2018-05-27T01:19:58.363Z,0
2018-05-27T01:20:38.911Z,0
2018-05-27T01:21:19.498Z,0
2018-05-27T01:22:00.036Z,0
2018-05-27T01:22:40.583Z,0
2018-05-27T01:23:21.158Z,0
2018-05-27T01:24:01.744Z,0
2018-05-27T01:24:42.283Z,0
2018-05-27T01:25:22.851Z,0
2018-05-27T01:26:03.412Z,0
2018-05-27T01:26:43.998Z,0
2018-05-27T01:27:24.549Z,0
2018-05-27T01:28:05.092Z,0
2018-05-27T01:28:45.646Z,0
2018-05-27T01:29:26.211Z,0
2018-05-27T01:30:06.764Z,0
2018-05-27T01:30:47.312Z,0
2018-05-27T01:31:27.870Z,0
2018-05-27T01:32:08.439Z,0
2018-05-27T01:32:49.034Z,0
2018-05-27T01:33:29.598Z,0
2018-05-27T01:34:10.151Z,0
2018-05-27T01:34:50.704Z,0
2018-05-27T01:35:31.250Z,0
2018-05-27T01:36:11.803Z,0
2018-05-27T01:36:52.351Z,0
2018-05-27T01:37:32.910Z,0
2018-05-27T01:38:13.470Z,0
2018-05-27T01:38:54.055Z,0
2018-05-27T01:39:34.615Z,0
2018-05-27T01:40:15.155Z,0
2018-05-27T01:40:55.704Z,0
2018-05-27T01:41:36.251Z,0
2018-05-27T01:42:16.823Z,0
2018-05-27T01:42:57.410Z,0
2018-05-27T01:43:37.998Z,0
2018-05-27T01:44:18.567Z,0
2018-05-27T01:44:59.134Z,0
2018-05-27T01:45:39.712Z,0
2018-05-27T01:46:20.285Z,0
2018-05-27T01:47:00.849Z,0
2018-05-27T01:47:41.412Z,0
2018-05-27T01:48:21.988Z,0
2018-05-27T01:49:02.520Z,0
2018-05-27T01:49:43.065Z,0
2018-05-27T01:50:23.619Z,0
2018-05-27T01:51:04.165Z,0
2018-05-27T01:51:44.719Z,0
2018-05-27T01:52:25.267Z,0
2018-05-27T01:53:05.838Z,0
2018-05-27T01:53:46.412Z,0
2018-05-27T01:54:26.956Z,0
2018-05-27T01:55:07.518Z,0
2018-05-27T01:55:48.055Z,0
2018-05-27T01:56:28.649Z,0
2018-05-27T01:57:09.193Z,0
2018-05-27T01:57:49.776Z,0
2018-05-27T01:58:30.403Z,0
2018-05-27T01:59:11.029Z,0
2018-05-27T01:59:51.589Z,0
2018-05-27T02:00:32.161Z,0
2018-05-27T02:01:12.716Z,0
2018-05-27T02:01:53.278Z,0
2018-05-27T02:02:33.840Z,0
2018-05-27T02:03:14.379Z,0
2018-05-27T02:03:54.919Z,0
2018-05-27T02:04:35.475Z,0
2018-05-27T02:05:16.046Z,0
2018-05-27T02:05:56.607Z,0
2018-05-27T02:06:37.164Z,0
2018-05-27T02:07:17.706Z,0
2018-05-27T02:07:58.265Z,0
2018-05-27T02:08:38.792Z,0
2018-05-27T02:09:19.327Z,0
2018-05-27T02:09:59.886Z,0
2018-05-27T02:10:40.427Z,0
2018-05-27T02:11:21.013Z,0
2018-05-27T02:12:01.573Z,0
2018-05-27T02:12:42.118Z,0
2018-05-27T02:13:22.692Z,0
2018-05-27T02:14:03.235Z,0
2018-05-27T02:14:43.799Z,0
2018-05-27T02:15:24.371Z,0
2018-05-27T02:16:04.931Z,0
2018-05-27T02:16:45.511Z,0
2018-05-27T02:17:26.094Z,0
2018-05-27T02:18:06.653Z,0
2018-05-27T02:18:47.233Z,0
2018-05-27T02:19:27.796Z,4
2018-05-27T02:20:08.357Z,4
2018-05-27T02:20:48.909Z,4
2018-05-27T02:21:29.482Z,4
2018-05-27T02:22:10.038Z,0
2018-05-27T02:22:50.601Z,0
2018-05-27T02:23:31.159Z,4
2018-05-27T02:24:11.737Z,4
2018-05-27T02:24:52.318Z,4
2018-05-27T02:25:32.867Z,4
2018-05-27T02:26:13.445Z,4
2018-05-27T02:26:53.993Z,4
2018-05-27T02:27:34.620Z,8
2018-05-27T02:28:15.183Z,8
2018-05-27T02:28:55.749Z,4
2018-05-27T02:29:36.324Z,8
2018-05-27T02:30:16.858Z,4
2018-05-27T02:30:57.430Z,8
2018-05-27T02:31:37.981Z,12
2018-05-27T02:32:18.545Z,8
2018-05-27T02:32:59.144Z,12
2018-05-27T02:33:39.682Z,12
2018-05-27T02:34:20.311Z,12
2018-05-27T02:35:00.861Z,12
2018-05-27T02:35:41.423Z,12
2018-05-27T02:36:21.969Z,16
2018-05-27T02:37:02.519Z,16
2018-05-27T02:37:43.088Z,16
2018-05-27T02:38:23.620Z,20
2018-05-27T02:39:04.210Z,24
2018-05-27T02:39:44.795Z,24
2018-05-27T02:40:25.364Z,24
2018-05-27T02:41:05.964Z,28
2018-05-27T02:41:46.487Z,28
2018-05-27T02:42:27.047Z,32
2018-05-27T02:43:07.591Z,36
2018-05-27T02:43:48.152Z,36
2018-05-27T02:44:28.712Z,40
2018-05-27T02:45:09.293Z,40
2018-05-27T02:45:49.859Z,40
2018-05-27T02:46:30.405Z,48
2018-05-27T02:47:10.971Z,48
2018-05-27T02:47:51.534Z,48
2018-05-27T02:48:32.093Z,56
2018-05-27T02:49:12.662Z,56
2018-05-27T02:49:53.219Z,60
2018-05-27T02:50:33.852Z,68
2018-05-27T02:51:14.418Z,68
2018-05-27T02:51:54.977Z,72
2018-05-27T02:52:35.534Z,76
2018-05-27T02:53:16.095Z,80
2018-05-27T02:53:56.654Z,84
2018-05-27T02:54:37.228Z,92
2018-05-27T02:55:17.800Z,92
2018-05-27T02:55:58.365Z,100
2018-05-27T02:56:38.917Z,104
2018-05-27T02:57:19.477Z,112
2018-05-27T02:58:00.063Z,116
2018-05-27T02:58:40.651Z,124
2018-05-27T02:59:21.211Z,128
2018-05-27T03:00:01.807Z,136
2018-05-27T03:00:42.373Z,140
2018-05-27T03:01:22.940Z,144
2018-05-27T03:02:03.511Z,152
2018-05-27T03:02:44.050Z,160
2018-05-27T03:03:24.648Z,164
2018-05-27T03:04:05.183Z,172
2018-05-27T03:04:45.739Z,180
2018-05-27T03:05:26.299Z,188
2018-05-27T03:06:06.877Z,196
2018-05-27T03:06:47.427Z,204
2018-05-27T03:07:27.971Z,212
2018-05-27T03:08:08.542Z,216
2018-05-27T03:08:49.106Z,228
2018-05-27T03:09:29.641Z,236
2018-05-27T03:10:10.194Z,248
2018-05-27T03:10:50.797Z,256
2018-05-27T03:11:31.348Z,268
2018-05-27T03:12:11.888Z,272
2018-05-27T03:12:52.429Z,288
2018-05-27T03:13:32.982Z,296
2018-05-27T03:14:13.544Z,308
2018-05-27T03:14:54.109Z,316
2018-05-27T03:15:34.674Z,328
2018-05-27T03:16:15.227Z,344
2018-05-27T03:16:55.779Z,352
2018-05-27T03:17:36.327Z,368
2018-05-27T03:18:16.881Z,380
2018-05-27T03:18:57.457Z,396
2018-05-27T03:19:37.989Z,408
2018-05-27T03:20:18.575Z,420
2018-05-27T03:20:59.160Z,432
2018-05-27T03:21:39.693Z,448
2018-05-27T03:22:20.260Z,460
2018-05-27T03:23:00.824Z,476
2018-05-27T03:23:41.385Z,488
2018-05-27T03:24:22.054Z,504
2018-05-27T03:25:02.638Z,516
2018-05-27T03:25:43.172Z,528
2018-05-27T03:26:23.763Z,544
2018-05-27T03:27:04.304Z,556
2018-05-27T03:27:44.904Z,576
2018-05-27T03:28:25.500Z,592
2018-05-27T03:29:06.030Z,608
2018-05-27T03:29:46.601Z,624
2018-05-27T03:30:27.202Z,640
2018-05-27T03:31:07.756Z,656
2018-05-27T03:31:48.311Z,676
2018-05-27T03:32:28.877Z,688
2018-05-27T03:33:09.447Z,712
2018-05-27T03:33:50.005Z,732
2018-05-27T03:34:30.578Z,756
2018-05-27T03:35:11.151Z,776
2018-05-27T03:35:51.717Z,796
2018-05-27T03:36:32.282Z,816
2018-05-27T03:37:12.846Z,836
2018-05-27T03:37:53.451Z,856
2018-05-27T03:38:34.004Z,872
2018-05-27T03:39:14.575Z,888
2018-05-27T03:39:55.140Z,904
2018-05-27T03:40:35.699Z,920
2018-05-27T03:41:16.263Z,940
2018-05-27T03:41:56.833Z,964
2018-05-27T03:42:37.426Z,984
2018-05-27T03:43:18.017Z,1008
2018-05-27T03:43:58.631Z,1028
2018-05-27T03:44:39.196Z,1052
2018-05-27T03:45:19.778Z,1072
2018-05-27T03:46:00.336Z,1092
2018-05-27T03:46:40.911Z,1112
2018-05-27T03:47:21.491Z,1136
2018-05-27T03:48:02.135Z,1156
2018-05-27T03:48:42.648Z,1176
2018-05-27T03:49:23.214Z,1200
2018-05-27T03:50:03.776Z,1220
2018-05-27T03:50:44.347Z,1240
2018-05-27T03:51:24.913Z,1264
2018-05-27T03:52:05.485Z,1280
2018-05-27T03:52:46.063Z,1304
2018-05-27T03:53:26.618Z,1328
2018-05-27T03:54:07.164Z,1348
2018-05-27T03:54:47.721Z,1368
2018-05-27T03:55:28.321Z,1392
2018-05-27T03:56:08.868Z,1420
2018-05-27T03:56:49.445Z,1444
2018-05-27T03:57:29.997Z,1468
2018-05-27T03:58:10.556Z,1496
2018-05-27T03:58:51.113Z,1520
2018-05-27T03:59:31.727Z,1548
2018-05-27T04:00:12.287Z,1572
2018-05-27T04:00:52.872Z,1596
2018-05-27T04:01:33.439Z,1620
2018-05-27T04:02:14.046Z,1640
2018-05-27T04:02:54.610Z,1660
2018-05-27T04:03:35.170Z,1688
2018-05-27T04:04:15.737Z,1712
2018-05-27T04:04:56.291Z,1728
2018-05-27T04:05:36.843Z,1752
2018-05-27T04:06:17.438Z,1776
2018-05-27T04:06:58.011Z,1804
2018-05-27T04:07:38.588Z,1824
2018-05-27T04:08:19.138Z,1852
2018-05-27T04:08:59.688Z,1880
2018-05-27T04:09:40.247Z,1908
2018-05-27T04:10:20.801Z,1932
2018-05-27T04:11:01.378Z,1952
2018-05-27T04:11:41.947Z,1972
2018-05-27T04:12:22.517Z,1992
2018-05-27T04:13:03.075Z,2020
2018-05-27T04:13:43.639Z,2044
2018-05-27T04:14:24.201Z,2072
2018-05-27T04:15:04.810Z,2100
2018-05-27T04:15:45.368Z,2120
2018-05-27T04:16:25.928Z,2144
2018-05-27T04:17:06.500Z,2168
2018-05-27T04:17:47.107Z,2196
2018-05-27T04:18:27.647Z,2224
2018-05-27T04:19:08.212Z,2244
2018-05-27T04:19:48.780Z,2272
2018-05-27T04:20:29.343Z,2292
2018-05-27T04:21:09.901Z,2312
2018-05-27T04:21:50.455Z,2328
2018-05-27T04:22:31.010Z,2348
2018-05-27T04:23:11.585Z,2368
2018-05-27T04:23:52.170Z,2392
2018-05-27T04:24:32.737Z,2408
2018-05-27T04:25:13.291Z,2432
2018-05-27T04:25:53.973Z,2448
2018-05-27T04:26:34.598Z,2480
2018-05-27T04:27:15.105Z,2512
2018-05-27T04:27:55.664Z,2548
2018-05-27T04:28:36.265Z,2576
2018-05-27T04:29:16.868Z,2612
2018-05-27T04:29:57.434Z,2644
2018-05-27T04:30:38.010Z,2668
2018-05-27T04:31:18.623Z,2688
2018-05-27T04:31:59.205Z,2720
2018-05-27T04:32:39.765Z,2740
2018-05-27T04:33:20.332Z,2760
2018-05-27T04:34:00.920Z,2784
2018-05-27T04:34:41.509Z,2804
2018-05-27T04:35:22.088Z,2832
2018-05-27T04:36:02.735Z,2852
2018-05-27T04:36:43.293Z,2888
2018-05-27T04:37:23.854Z,2912
2018-05-27T04:38:04.438Z,2940
2018-05-27T04:38:45.016Z,2960
2018-05-27T04:39:25.581Z,2988
2018-05-27T04:40:06.170Z,3016
2018-05-27T04:40:46.758Z,3036
2018-05-27T04:41:27.330Z,3072
2018-05-27T04:42:07.888Z,3092
2018-05-27T04:42:48.466Z,3120
2018-05-27T04:43:29.007Z,3148
2018-05-27T04:44:09.559Z,3176
2018-05-27T04:44:50.135Z,3204
2018-05-27T04:45:30.683Z,3224
2018-05-27T04:46:11.275Z,3256
2018-05-27T04:46:51.852Z,3272
2018-05-27T04:47:32.387Z,3280
2018-05-27T04:48:12.928Z,3304
2018-05-27T04:48:53.490Z,3328
2018-05-27T04:49:34.075Z,3352
2018-05-27T04:50:14.617Z,3364
2018-05-27T04:50:55.176Z,3400
2018-05-27T04:51:35.739Z,3424
2018-05-27T04:52:16.300Z,3452
2018-05-27T04:52:56.866Z,3484
2018-05-27T04:53:37.436Z,3524
2018-05-27T04:54:18.003Z,3560
2018-05-27T04:54:58.552Z,3592
2018-05-27T04:55:39.098Z,3628
2018-05-27T04:56:19.646Z,3664
2018-05-27T04:57:00.255Z,3704
2018-05-27T04:57:40.861Z,3728
2018-05-27T04:58:21.442Z,3768
2018-05-27T04:59:02.097Z,3812
2018-05-27T04:59:42.646Z,3832
2018-05-27T05:00:23.212Z,3860
2018-05-27T05:01:03.787Z,3884
2018-05-27T05:01:44.338Z,3916
2018-05-27T05:02:24.911Z,3936
2018-05-27T05:03:05.464Z,3964
2018-05-27T05:03:46.077Z,4008
2018-05-27T05:04:26.651Z,4048
2018-05-27T05:05:07.215Z,4104
2018-05-27T05:05:47.787Z,4144
2018-05-27T05:06:28.320Z,4192
2018-05-27T05:07:08.896Z,4228
2018-05-27T05:07:49.459Z,4276
2018-05-27T05:08:30.012Z,4332
2018-05-27T05:09:10.808Z,4380
2018-05-27T05:09:51.344Z,4424
2018-05-27T05:10:31.905Z,4456
2018-05-27T05:11:12.527Z,4500
2018-05-27T05:11:53.091Z,4532
2018-05-27T05:12:33.699Z,4556
2018-05-27T05:13:14.211Z,4592
2018-05-27T05:13:54.743Z,4628
2018-05-27T05:14:35.357Z,4664
2018-05-27T05:15:15.926Z,4684
2018-05-27T05:15:56.470Z,4740
2018-05-27T05:16:37.032Z,4788
2018-05-27T05:17:17.598Z,4836
2018-05-27T05:17:58.179Z,4908
2018-05-27T05:18:38.733Z,4944
2018-05-27T05:19:19.401Z,5000
2018-05-27T05:19:59.909Z,5064
2018-05-27T05:20:40.455Z,5128
2018-05-27T05:21:21.019Z,5188
2018-05-27T05:22:01.620Z,5288
2018-05-27T05:22:42.170Z,5336
2018-05-27T05:23:22.733Z,5412
2018-05-27T05:24:03.328Z,5496
2018-05-27T05:24:43.891Z,5580
2018-05-27T05:25:24.459Z,5648
2018-05-27T05:26:05.012Z,7408
2018-05-27T05:26:45.548Z,25408
2018-05-27T05:27:26.105Z,48960
2018-05-27T05:28:06.657Z,67040
2018-05-27T05:28:47.193Z,68960
2018-05-27T05:29:27.818Z,67584
2018-05-27T05:30:08.394Z,66560
2018-05-27T05:30:48.953Z,66432
2018-05-27T05:31:29.498Z,65888
2018-05-27T05:32:10.061Z,64448
2018-05-27T05:32:50.682Z,64256
2018-05-27T05:33:31.252Z,65952
2018-05-27T05:34:11.869Z,66240
2018-05-27T05:34:52.414Z,67168
2018-05-27T05:35:32.981Z,67488
2018-05-27T05:36:13.534Z,67424
2018-05-27T05:36:54.111Z,67008
2018-05-27T05:37:34.689Z,66816
2018-05-27T05:38:15.257Z,65216
2018-05-27T05:38:55.821Z,63776
2018-05-27T05:39:36.367Z,63968
2018-05-27T05:40:16.930Z,64768
2018-05-27T05:40:57.523Z,67488
2018-05-27T05:41:38.070Z,67360
2018-05-27T05:42:18.645Z,67488
2018-05-27T05:42:59.246Z,65824
2018-05-27T05:43:39.886Z,64544
2018-05-27T05:44:20.437Z,64032
2018-05-27T05:45:01.025Z,64736
2018-05-27T05:45:41.624Z,66016
2018-05-27T05:46:22.180Z,66752
2018-05-27T05:47:02.757Z,66848
2018-05-27T05:47:43.303Z,67072
2018-05-27T05:48:23.908Z,67808
2018-05-27T05:49:04.454Z,69088
2018-05-27T05:49:45.027Z,70016
2018-05-27T05:50:25.595Z,70144
2018-05-27T05:51:06.140Z,70112
2018-05-27T05:51:46.717Z,69792
2018-05-27T05:52:27.258Z,70208
2018-05-27T05:53:07.812Z,70784
2018-05-27T05:53:48.420Z,72096
2018-05-27T05:54:29.020Z,74560
2018-05-27T05:55:09.606Z,75648
2018-05-27T05:55:50.112Z,75616
2018-05-27T05:56:30.692Z,76160
2018-05-27T05:57:11.282Z,76480
2018-05-27T05:57:51.898Z,76992
2018-05-27T05:58:32.508Z,76608
2018-05-27T05:59:13.106Z,75328
2018-05-27T05:59:53.658Z,73216
2018-05-27T06:00:34.220Z,73024
2018-05-27T06:01:14.789Z,74336
2018-05-27T06:01:55.356Z,76000
2018-05-27T06:02:35.931Z,77024
2018-05-27T06:03:16.506Z,77216
2018-05-27T06:03:57.111Z,76960
2018-05-27T06:04:37.663Z,78080
2018-05-27T06:05:18.272Z,77184
2018-05-27T06:05:58.881Z,79104
2018-05-27T06:06:39.454Z,79008
2018-05-27T06:07:20.003Z,79328
2018-05-27T06:08:00.570Z,79296
2018-05-27T06:08:41.160Z,78464
2018-05-27T06:09:21.738Z,77344
2018-05-27T06:10:02.305Z,75360
2018-05-27T06:10:42.853Z,73504
2018-05-27T06:11:23.426Z,70816
2018-05-27T06:12:04.004Z,70560
2018-05-27T06:12:44.558Z,72992
2018-05-27T06:13:25.129Z,74848
2018-05-27T06:14:05.726Z,75776
2018-05-27T06:14:46.272Z,76512
2018-05-27T06:15:26.842Z,76768
2018-05-27T06:16:07.477Z,78656
2018-05-27T06:16:48.078Z,77600
2018-05-27T06:17:28.677Z,75552
2018-05-27T06:18:09.316Z,75456
2018-05-27T06:18:49.959Z,75936
2018-05-27T06:19:30.712Z,75232
2018-05-27T06:20:11.261Z,76576
2018-05-27T06:20:51.828Z,77472
2018-05-27T06:21:32.399Z,77984
2018-05-27T06:22:13.038Z,78208
2018-05-27T06:22:53.602Z,77408
2018-05-27T06:23:34.375Z,77600
2018-05-27T06:24:15.042Z,77024
2018-05-27T06:24:55.615Z,76544
2018-05-27T06:25:36.444Z,75584
2018-05-27T06:26:16.978Z,74688
2018-05-27T06:26:57.534Z,74048
2018-05-27T06:27:38.119Z,73440
2018-05-27T06:28:19.015Z,75328
2018-05-27T06:28:59.592Z,77312
2018-05-27T06:29:40.373Z,79360
2018-05-27T06:30:20.906Z,80544
2018-05-27T06:31:01.456Z,79552
2018-05-27T06:31:42.124Z,78016
2018-05-27T06:32:22.695Z,76064
2018-05-27T06:33:03.273Z,75072
2018-05-27T06:33:43.839Z,76288
2018-05-27T06:34:24.450Z,77504
2018-05-27T06:35:05.049Z,78208
2018-05-27T06:35:45.669Z,77536
2018-05-27T06:36:26.236Z,78112
2018-05-27T06:37:06.821Z,79232
2018-05-27T06:37:47.445Z,80480
2018-05-27T06:38:28.058Z,78240
2018-05-27T06:39:08.833Z,76736
2018-05-27T06:39:49.407Z,74880
2018-05-27T06:40:30.003Z,74336
2018-05-27T06:41:10.753Z,75904
2018-05-27T06:41:51.355Z,77376
2018-05-27T06:42:31.948Z,78144
2018-05-27T06:43:12.626Z,78240
2018-05-27T06:43:53.221Z,79104
2018-05-27T06:44:33.812Z,78528
2018-05-27T06:45:14.444Z,77856
2018-05-27T06:45:55.029Z,76800
2018-05-27T06:46:35.608Z,77120
2018-05-27T06:47:16.206Z,75872
2018-05-27T06:47:56.764Z,71360
2018-05-27T06:48:37.354Z,70720
2018-05-27T06:49:17.903Z,74720
2018-05-27T06:49:58.483Z,77664
2018-05-27T06:50:39.047Z,77824
2018-05-27T06:51:19.689Z,78080
2018-05-27T06:52:00.252Z,77568
2018-05-27T06:52:40.910Z,78368
2018-05-27T06:53:21.471Z,79040
2018-05-27T06:54:02.061Z,78976
2018-05-27T06:54:42.708Z,79584
2018-05-27T06:55:23.281Z,78304
2018-05-27T06:56:03.956Z,78048
2018-05-27T06:56:44.550Z,75872
2018-05-27T06:57:25.312Z,73824
2018-05-27T06:58:05.780Z,72960
2018-05-27T06:58:46.347Z,70656
2018-05-27T06:59:26.896Z,70048
2018-05-27T07:00:07.478Z,72384
2018-05-27T07:00:48.037Z,69600
2018-05-27T07:01:28.616Z,64256
2018-05-27T07:02:09.164Z,61536
2018-05-27T07:02:49.779Z,63968
2018-05-27T07:03:30.589Z,68928
2018-05-27T07:04:11.141Z,74464
2018-05-27T07:04:51.869Z,77120
2018-05-27T07:05:32.266Z,76224
2018-05-27T07:06:12.893Z,75040
2018-05-27T07:06:53.740Z,74080
2018-05-27T07:07:34.343Z,75968
2018-05-27T07:08:14.992Z,78432
2018-05-27T07:08:55.551Z,77376
2018-05-27T07:09:36.100Z,76896
2018-05-27T07:10:16.655Z,77472
2018-05-27T07:10:57.229Z,77760
2018-05-27T07:11:37.810Z,78944
2018-05-27T07:12:18.325Z,80448
2018-05-27T07:12:58.886Z,78624
2018-05-27T07:13:39.436Z,75936
2018-05-27T07:14:20.008Z,75872
2018-05-27T07:15:00.537Z,78912
2018-05-27T07:15:41.095Z,79808
2018-05-27T07:16:21.713Z,78528
2018-05-27T07:17:02.360Z,78496
2018-05-27T07:17:42.899Z,78080
2018-05-27T07:18:23.495Z,78336
2018-05-27T07:19:04.131Z,78752
2018-05-27T07:19:44.731Z,78080
2018-05-27T07:20:25.351Z,77440
2018-05-27T07:21:05.937Z,77184
2018-05-27T07:21:46.517Z,75616
2018-05-27T07:22:27.080Z,73536
2018-05-27T07:23:07.667Z,78144
2018-05-27T07:23:48.244Z,77856
2018-05-27T07:24:28.821Z,76704
2018-05-27T07:25:09.416Z,77952
2018-05-27T07:25:49.994Z,79584
2018-05-27T07:26:30.529Z,78176
2018-05-27T07:27:11.161Z,78048
2018-05-27T07:27:51.728Z,77536
2018-05-27T07:28:32.287Z,78848
2018-05-27T07:29:12.871Z,78432
2018-05-27T07:29:53.485Z,78240
2018-05-27T07:30:34.095Z,75712
2018-05-27T07:31:14.650Z,73888
2018-05-27T07:31:55.215Z,75072
2018-05-27T07:32:35.847Z,76672
2018-05-27T07:33:16.504Z,80160
2018-05-27T07:33:57.075Z,81472
2018-05-27T07:34:37.704Z,79488
2018-05-27T07:35:18.234Z,79264
2018-05-27T07:35:58.857Z,79904
2018-05-27T07:36:39.422Z,80320
2018-05-27T07:37:20.000Z,81792
2018-05-27T07:38:00.610Z,81344
2018-05-27T07:38:41.163Z,80992
2018-05-27T07:39:21.742Z,79712
2018-05-27T07:40:02.292Z,75104
2018-05-27T07:40:42.927Z,72896
2018-05-27T07:41:23.427Z,76000
2018-05-27T07:42:04.057Z,77920
2018-05-27T07:42:44.682Z,79488
2018-05-27T07:43:25.291Z,81536
2018-05-27T07:44:06.347Z,82560
2018-05-27T07:44:47.827Z,81184
2018-05-27T07:45:30.459Z,81120
2018-05-27T07:46:10.780Z,80928
2018-05-27T07:46:51.336Z,81888
2018-05-27T07:47:31.931Z,84576
2018-05-27T07:48:12.651Z,84672
2018-05-27T07:48:53.234Z,82336
2018-05-27T07:49:33.811Z,82336
2018-05-27T07:50:14.359Z,82496
2018-05-27T07:50:54.940Z,83328
2018-05-27T07:51:35.546Z,82752
2018-05-27T07:52:16.127Z,82816
2018-05-27T07:52:56.744Z,83008
2018-05-27T07:53:37.305Z,85824
2018-05-27T07:54:17.908Z,88512
2018-05-27T07:54:58.489Z,88384
2018-05-27T07:55:39.040Z,87392
2018-05-27T07:56:19.639Z,84448
2018-05-27T07:57:00.335Z,81024
2018-05-27T07:57:40.903Z,69952
2018-05-27T07:58:21.508Z,47264
2018-05-27T07:59:02.043Z,26688
2018-05-27T07:59:42.592Z,18528
2018-05-27T08:00:23.217Z,17728
2018-05-27T08:01:03.821Z,17280
2018-05-27T08:01:44.390Z,16832
2018-05-27T08:02:25.059Z,16640
2018-05-27T08:03:05.637Z,16416
2018-05-27T08:03:46.228Z,16192
2018-05-27T08:04:26.811Z,16064
2018-05-27T08:05:07.373Z,15904
2018-05-27T08:05:47.956Z,15568
2018-05-27T08:06:28.516Z,15316
2018-05-27T08:07:09.109Z,15096
2018-05-27T08:07:49.745Z,14872
2018-05-27T08:08:30.266Z,14648
2018-05-27T08:09:10.824Z,14480
2018-05-27T08:09:51.399Z,14284
2018-05-27T08:10:31.961Z,14052
2018-05-27T08:11:12.541Z,13792
2018-05-27T08:11:53.184Z,13568
2018-05-27T08:12:33.746Z,13324
2018-05-27T08:13:14.293Z,13132
2018-05-27T08:13:54.855Z,12932
2018-05-27T08:14:35.406Z,12664
2018-05-27T08:15:15.980Z,12464
2018-05-27T08:15:56.529Z,12300
2018-05-27T08:16:37.113Z,12120
2018-05-27T08:17:17.669Z,11936
2018-05-27T08:17:58.282Z,11724
2018-05-27T08:18:38.829Z,11532
2018-05-27T08:19:19.376Z,11404
2018-05-27T08:19:59.992Z,11208
2018-05-27T08:20:40.531Z,11060
2018-05-27T08:21:21.092Z,10896
2018-05-27T08:22:01.676Z,10772
2018-05-27T08:22:42.244Z,10668
2018-05-27T08:23:22.976Z,10568
2018-05-27T08:24:03.560Z,10456
2018-05-27T08:24:44.145Z,10336
2018-05-27T08:25:24.740Z,10280
2018-05-27T08:26:05.318Z,10188
2018-05-27T08:26:45.966Z,10052
2018-05-27T08:27:26.541Z,9980
2018-05-27T08:28:07.098Z,9916
2018-05-27T08:28:47.660Z,9880
2018-05-27T08:29:28.218Z,9820
2018-05-27T08:30:08.806Z,9752
2018-05-27T08:30:49.376Z,9668
2018-05-27T08:31:30.169Z,9600
2018-05-27T08:32:10.740Z,9532
2018-05-27T08:32:51.312Z,9464
2018-05-27T08:33:31.871Z,9400
2018-05-27T08:34:12.425Z,9368
2018-05-27T08:34:52.998Z,9376
2018-05-27T08:35:33.561Z,9356
2018-05-27T08:36:14.123Z,9312
2018-05-27T08:36:54.686Z,9268
2018-05-27T08:37:35.278Z,9228
2018-05-27T08:38:15.868Z,9240
2018-05-27T08:38:56.448Z,9212
2018-05-27T08:39:36.989Z,9180
2018-05-27T08:40:17.594Z,9160
2018-05-27T08:40:58.122Z,9124
2018-05-27T08:41:38.701Z,9072
2018-05-27T08:42:19.303Z,9016
2018-05-27T08:42:59.879Z,8960
2018-05-27T08:43:40.429Z,8916
2018-05-27T08:44:21.013Z,8848
2018-05-27T08:45:01.633Z,8800
2018-05-27T08:45:42.198Z,8752
2018-05-27T08:46:22.799Z,8696
2018-05-27T08:47:03.365Z,8644
2018-05-27T08:47:43.891Z,8588
2018-05-27T08:48:24.491Z,8536
2018-05-27T08:49:05.186Z,8504
2018-05-27T08:49:45.749Z,8472
2018-05-27T08:50:26.410Z,8436
2018-05-27T08:51:06.963Z,8400
2018-05-27T08:51:47.625Z,8352
2018-05-27T08:52:28.198Z,8328
2018-05-27T08:53:08.851Z,8296
2018-05-27T08:53:49.406Z,8260
2018-05-27T08:54:30.014Z,8240
2018-05-27T08:55:10.584Z,8228
2018-05-27T08:55:51.146Z,8212
2018-05-27T08:56:31.702Z,8184
2018-05-27T08:57:12.316Z,8152
2018-05-27T08:57:52.856Z,8112
2018-05-27T08:58:33.441Z,8084
2018-05-27T08:59:13.970Z,8060
2018-05-27T08:59:54.588Z,8032
2018-05-27T09:00:35.270Z,8028
2018-05-27T09:01:17.084Z,7988
2018-05-27T09:01:57.659Z,8008
2018-05-27T09:02:38.160Z,8004
2018-05-27T09:03:18.735Z,8004
2018-05-27T09:03:59.258Z,7968
2018-05-27T09:04:39.832Z,7920
2018-05-27T09:05:20.418Z,7832
2018-05-27T09:06:01.003Z,7772
2018-05-27T09:06:41.631Z,7704
2018-05-27T09:07:22.163Z,7612
2018-05-27T09:08:02.739Z,7520
2018-05-27T09:08:43.306Z,7452
2018-05-27T09:09:23.943Z,7428
2018-05-27T09:10:04.491Z,7384
2018-05-27T09:10:45.057Z,7340
2018-05-27T09:11:25.619Z,7284
2018-05-27T09:12:06.214Z,7240